Time;durP1;ratioP1;P1;durP2;ratioP2;P2;SDS_P1;SDS_P2;PMS_P1;PMS_P2;Temp;Humidity;BMP_temperature;BMP_pressure;BME280_temperature;BME280_humidity;BME280_pressure;Samples;Min_cycle;Max_cycle;Signal;HPM_P1;HPM_P2
2020/12/09 00:00:07;;;;;;;30.02;12.88;;;;;;;-6.29;63.64;100606.62;1753289;80;21153;-60
2020/12/09 00:02:53;;;;;;;52.27;22.15;;;;;;;-6.27;63.73;100616.60;1752824;80;21129;-60
2020/12/09 00:05:22;;;;;;;31.10;12.63;;;;;;;-6.30;63.65;100615.53;1757461;80;21482;-60
2020/12/09 00:07:50;;;;;;;47.35;20.00;;;;;;;-6.33;63.62;100610.04;1751186;80;21177;-61
2020/12/09 00:10:18;;;;;;;25.43;11.28;;;;;;;-6.29;63.53;100607.45;1752396;81;21699;-61
2020/12/09 00:12:46;;;;;;;38.08;16.67;;;;;;;-6.30;63.53;100603.61;1753371;80;21923;-60
2020/12/09 00:15:17;;;;;;;29.75;11.95;;;;;;;-6.27;63.45;100609.46;1751197;80;21185;-61
2020/12/09 00:17:45;;;;;;;25.48;12.20;;;;;;;-6.29;63.43;100612.75;1764373;80;21170;-60
2020/12/09 00:20:13;;;;;;;39.50;17.85;;;;;;;-6.27;63.39;100613.44;1742716;80;21656;-61
2020/12/09 00:22:41;;;;;;;34.43;16.82;;;;;;;-6.27;63.28;100612.63;1704556;83;21193;-60
2020/12/09 00:25:09;;;;;;;36.73;15.88;;;;;;;-6.29;63.19;100599.98;1689378;85;21697;-61
2020/12/09 00:27:37;;;;;;;21.85;9.78;;;;;;;-6.28;63.18;100606.97;1752372;80;21279;-60
2020/12/09 00:30:06;;;;;;;26.10;11.33;;;;;;;-6.30;63.08;100604.45;1752003;82;21149;-61
2020/12/09 00:32:35;;;;;;;25.40;12.40;;;;;;;-6.28;63.17;100606.97;1771187;80;21169;-60
2020/12/09 00:35:06;;;;;;;27.93;13.05;;;;;;;-6.23;63.09;100609.52;1690866;84;21176;-60
2020/12/09 00:37:35;;;;;;;23.47;11.00;;;;;;;-6.24;63.05;100614.98;1705886;83;21176;-61
2020/12/09 00:40:05;;;;;;;21.75;10.05;;;;;;;-6.22;62.90;100612.53;1723567;82;21576;-60
2020/12/09 00:42:33;;;;;;;22.70;10.70;;;;;;;-6.20;62.83;100609.75;1723602;81;21191;-61
2020/12/09 00:45:01;;;;;;;21.70;10.20;;;;;;;-6.19;62.82;100614.89;1738929;82;21177;-61
2020/12/09 00:47:29;;;;;;;27.93;14.83;;;;;;;-6.18;62.87;100610.43;1737407;82;21218;-60
2020/12/09 00:52:46;;;;;;;20.40;8.68;;;;;;;-6.09;62.42;100595.81;1726311;82;21166;-60
2020/12/09 00:55:15;;;;;;;21.80;10.53;;;;;;;-6.08;62.55;100593.52;1711068;82;21170;-61
2020/12/09 00:57:46;;;;;;;18.60;7.85;;;;;;;-6.05;62.55;100587.92;1723485;82;21303;-61
2020/12/09 01:00:14;;;;;;;17.30;8.15;;;;;;;-5.96;62.44;100586.72;1709417;83;21612;-61
2020/12/09 01:02:45;;;;;;;21.90;9.60;;;;;;;-5.95;62.18;100579.12;1694069;83;21195;-60
2020/12/09 01:05:15;;;;;;;18.70;8.78;;;;;;;-5.96;61.96;100584.91;1697794;83;21554;-60
2020/12/09 01:07:43;;;;;;;16.50;7.83;;;;;;;-5.94;62.14;100576.30;1705447;83;21626;-60
2020/12/09 01:10:11;;;;;;;18.07;8.20;;;;;;;-5.91;62.03;100579.14;1719305;83;21216;-60
2020/12/09 01:12:40;;;;;;;19.75;8.65;;;;;;;-5.87;62.01;100580.05;1719428;82;21664;-60
2020/12/09 01:15:08;;;;;;;18.90;9.45;;;;;;;-5.85;61.72;100575.41;1723464;82;21573;-60
2020/12/09 01:17:37;;;;;;;19.80;9.00;;;;;;;-5.83;61.76;100569.45;1705247;83;21149;-60
2020/12/09 01:20:05;;;;;;;26.23;13.10;;;;;;;-5.77;61.59;100574.17;1724134;82;21165;-60
2020/12/09 01:22:37;;;;;;;29.25;13.85;;;;;;;-5.74;61.33;100563.78;1723486;83;21178;-61
2020/12/09 01:25:05;;;;;;;25.02;11.48;;;;;;;-5.79;61.36;100565.53;1723476;83;21601;-60
2020/12/09 01:27:33;;;;;;;30.40;13.55;;;;;;;-5.77;61.03;100568.86;1729943;82;21577;-60
2020/12/09 01:30:01;;;;;;;30.75;13.98;;;;;;;-5.76;61.16;100571.03;1702050;83;21181;-61
2020/12/09 01:32:29;;;;;;;25.32;11.18;;;;;;;-5.78;61.02;100571.19;1673355;83;21164;-60
2020/12/09 01:34:56;;;;;;;29.20;13.13;;;;;;;-5.80;61.11;100581.09;1704260;82;21194;-60
2020/12/09 01:37:24;;;;;;;19.23;9.08;;;;;;;-5.81;61.20;100578.09;1723794;82;21214;-60
2020/12/09 01:39:52;;;;;;;29.98;13.03;;;;;;;-5.80;61.00;100570.48;1745938;82;21601;-60
2020/12/09 01:42:20;;;;;;;21.12;11.55;;;;;;;-5.78;61.12;100574.33;1762555;80;21694;-60
2020/12/09 01:44:48;;;;;;;20.05;9.65;;;;;;;-5.76;61.13;100577.17;1722136;82;21189;-61
2020/12/09 01:47:16;;;;;;;22.37;9.85;;;;;;;-5.72;61.07;100579.87;1692210;84;21162;-60
2020/12/09 01:49:44;;;;;;;17.82;8.43;;;;;;;-5.78;60.85;100573.01;1702185;83;21585;-61
2020/12/09 01:52:12;;;;;;;22.60;10.38;;;;;;;-5.74;60.98;100571.73;1750862;80;21189;-60
2020/12/09 01:54:40;;;;;;;17.95;8.95;;;;;;;-5.79;61.08;100572.66;1752176;80;21110;-61
2020/12/09 01:57:12;;;;;;;23.50;10.65;;;;;;;-5.79;61.13;100573.98;1757559;80;21149;-61
2020/12/09 01:59:41;;;;;;;19.10;8.83;;;;;;;-5.74;61.24;100579.17;1732348;81;21126;-60
2020/12/09 02:02:10;;;;;;;19.00;8.98;;;;;;;-5.79;61.35;100581.45;1751352;82;21185;-61
2020/12/09 02:04:37;;;;;;;19.60;9.48;;;;;;;-5.78;61.39;100574.33;1752323;82;21162;-60
2020/12/09 02:07:05;;;;;;;18.77;9.75;;;;;;;-5.73;61.48;100580.85;1755833;80;21654;-60
2020/12/09 02:09:34;;;;;;;28.00;14.13;;;;;;;-5.72;61.48;100578.55;1753293;82;21146;-60
2020/12/09 02:12:02;;;;;;;19.42;9.28;;;;;;;-5.67;61.56;100580.77;1722789;80;21595;-60
2020/12/09 02:14:30;;;;;;;16.87;8.33;;;;;;;-5.66;61.47;100573.14;1683377;83;21584;-60
2020/12/09 02:16:58;;;;;;;18.77;10.08;;;;;;;-5.70;61.70;100573.92;1769749;80;21577;-61
2020/12/09 02:19:27;;;;;;;25.57;11.70;;;;;;;-5.62;61.66;100577.17;1767627;80;21164;-60
2020/12/09 02:21:57;;;;;;;30.92;13.85;;;;;;;-5.68;61.40;100568.00;1752416;80;21161;-60
2020/12/09 02:24:26;;;;;;;32.78;17.23;;;;;;;-5.63;61.89;100576.81;1740558;80;21150;-60
2020/12/09 02:26:54;;;;;;;49.63;26.50;;;;;;;-5.65;61.71;100571.67;1767218;80;21653;-60
2020/12/09 02:29:23;;;;;;;19.00;9.05;;;;;;;-5.60;61.70;100568.59;1752046;82;21127;-61
2020/12/09 02:31:51;;;;;;;22.27;13.85;;;;;;;-5.59;61.78;100577.70;1751021;81;21179;-61
2020/12/09 02:34:20;;;;;;;18.20;9.08;;;;;;;-5.56;61.73;100581.38;1753649;82;21555;-61
2020/12/09 02:36:48;;;;;;;17.50;8.45;;;;;;;-5.57;61.88;100569.13;1758247;80;21557;-60
2020/12/09 02:39:16;;;;;;;19.02;10.10;;;;;;;-5.55;61.72;100571.61;1690095;83;21165;-60
2020/12/09 02:41:44;;;;;;;17.77;8.45;;;;;;;-5.54;62.02;100574.62;1698226;83;21586;-59
2020/12/09 02:44:12;;;;;;;18.67;8.90;;;;;;;-5.54;61.95;100578.11;1732404;82;21174;-60
2020/12/09 02:46:40;;;;;;;21.20;9.98;;;;;;;-5.48;62.01;100587.77;1684304;82;21597;-60
2020/12/09 02:49:09;;;;;;;26.12;12.23;;;;;;;-5.47;61.69;100596.92;1721857;82;21779;-59
2020/12/09 02:51:38;;;;;;;23.92;11.50;;;;;;;-5.53;61.69;100597.52;1687162;85;21692;-60
2020/12/09 02:54:07;;;;;;;27.42;12.47;;;;;;;-5.52;61.83;100601.34;1692106;85;21164;-60
2020/12/09 02:56:34;;;;;;;27.73;13.03;;;;;;;-5.48;62.01;100605.02;1696593;83;21121;-60
2020/12/09 02:59:02;;;;;;;23.60;11.03;;;;;;;-5.45;62.07;100607.37;1672654;83;21576;-60
2020/12/09 03:01:34;;;;;;;42.58;20.82;;;;;;;-5.48;61.84;100602.36;1685173;83;21569;-60
2020/12/09 03:04:02;;;;;;;84.52;39.03;;;;;;;-5.44;62.10;100607.72;1718413;83;21173;-60
2020/12/09 03:06:32;;;;;;;201.35;89.05;;;;;;;-5.38;62.24;100600.48;1704509;82;21621;-60
2020/12/09 03:09:00;;;;;;;47.00;25.70;;;;;;;-5.34;62.33;100601.86;1669790;83;21551;-60
2020/12/09 03:11:29;;;;;;;24.63;11.38;;;;;;;-5.36;62.09;100598.53;1721125;83;21633;-61
2020/12/09 03:13:57;;;;;;;18.25;9.53;;;;;;;-5.34;62.32;100597.88;1704931;82;21176;-60
2020/12/09 03:16:25;;;;;;;17.40;8.68;;;;;;;-5.27;62.32;100602.94;1686419;83;21202;-60
2020/12/09 03:18:54;;;;;;;23.87;12.37;;;;;;;-5.28;62.03;100592.00;1702336;83;21554;-60
2020/12/09 03:21:22;;;;;;;21.80;10.08;;;;;;;-5.30;62.10;100598.77;1699855;83;21154;-60
2020/12/09 03:23:50;;;;;;;22.13;10.93;;;;;;;-5.31;62.20;100605.54;1725832;82;21603;-60
2020/12/09 03:26:19;;;;;;;16.82;8.55;;;;;;;-5.30;62.35;100600.09;1731586;82;21494;-61
2020/12/09 03:28:46;;;;;;;18.27;8.85;;;;;;;-5.27;62.31;100596.30;1725466;82;21214;-61
2020/12/09 03:31:15;;;;;;;17.20;8.75;;;;;;;-5.26;62.50;100595.33;1721869;83;21189;-61
2020/12/09 03:33:44;;;;;;;19.75;9.75;;;;;;;-5.27;62.62;100601.12;1689766;83;21623;-60
2020/12/09 03:36:12;;;;;;;21.10;8.83;;;;;;;-5.30;62.57;100604.56;1710700;83;21581;-60
2020/12/09 03:38:40;;;;;;;23.38;8.90;;;;;;;-5.29;62.48;100591.16;1715939;82;21187;-60
2020/12/09 03:41:08;;;;;;;17.82;8.60;;;;;;;-5.27;62.73;100590.50;1715439;83;21629;-61
2020/12/09 03:43:35;;;;;;;21.07;9.40;;;;;;;-5.24;62.70;100582.73;1715793;82;21585;-60
2020/12/09 03:46:04;;;;;;;17.25;8.95;;;;;;;-5.26;62.97;100585.55;1718093;82;21174;-60
2020/12/09 03:48:32;;;;;;;16.85;9.30;;;;;;;-5.25;62.87;100593.86;1718035;82;21601;-60
2020/12/09 03:51:01;;;;;;;19.00;9.23;;;;;;;-5.20;62.91;100578.80;1721212;80;21125;-60
2020/12/09 03:53:32;;;;;;;17.10;8.25;;;;;;;-5.19;62.82;100574.67;1746431;81;21552;-60
2020/12/09 03:55:59;;;;;;;15.35;7.78;;;;;;;-5.17;63.04;100571.36;1726951;80;21546;-61
2020/12/09 03:58:27;;;;;;;16.50;8.43;;;;;;;-5.14;63.07;100579.54;1756989;81;21674;-60
2020/12/09 04:00:55;;;;;;;18.50;8.70;;;;;;;-5.12;63.14;100578.39;1746193;80;21137;-61
2020/12/09 04:03:23;;;;;;;18.15;7.70;;;;;;;-5.10;63.09;100579.59;1706181;80;21214;-60
2020/12/09 04:05:51;;;;;;;17.35;8.48;;;;;;;-5.10;63.05;100575.60;1727324;80;21576;-61
2020/12/09 04:08:19;;;;;;;16.62;8.30;;;;;;;-5.12;63.08;100572.25;1756838;80;21621;-60
2020/12/09 04:10:47;;;;;;;19.30;9.08;;;;;;;-5.09;63.26;100570.13;1754308;81;21149;-60
2020/12/09 04:13:15;;;;;;;21.77;8.33;;;;;;;-5.06;63.26;100575.61;1715625;82;21115;-60
2020/12/09 04:15:43;;;;;;;18.40;8.43;;;;;;;-5.04;63.34;100584.28;1715591;82;21134;-61
2020/12/09 04:18:11;;;;;;;19.52;9.08;;;;;;;-5.03;63.33;100582.78;1739073;82;21537;-61
2020/12/09 04:20:39;;;;;;;17.77;7.78;;;;;;;-5.03;63.36;100584.11;1751854;80;21175;-61
2020/12/09 04:23:07;;;;;;;20.02;8.55;;;;;;;-5.05;63.47;100577.30;1739582;80;21170;-61
2020/12/09 04:25:35;;;;;;;20.75;9.50;;;;;;;-5.09;63.78;100574.59;1765770;80;21173;-59
2020/12/09 04:28:03;;;;;;;21.15;9.33;;;;;;;-5.07;63.86;100576.63;1669220;85;21691;-60
2020/12/09 04:30:31;;;;;;;17.57;8.45;;;;;;;-5.05;63.86;100569.33;1757780;80;21471;-60
2020/12/09 04:32:59;;;;;;;21.45;10.35;;;;;;;-5.02;63.72;100576.98;1754826;81;21597;-60
2020/12/09 04:35:27;;;;;;;22.25;9.48;;;;;;;-4.99;63.92;100575.87;1768747;81;21141;-60
2020/12/09 04:37:55;;;;;;;22.00;9.40;;;;;;;-4.97;63.80;100574.72;1759390;81;21145;-60
2020/12/09 04:40:26;;;;;;;23.47;10.45;;;;;;;-4.99;63.92;100579.85;1759466;80;21549;-61
2020/12/09 04:42:57;;;;;;;25.30;10.68;;;;;;;-5.00;64.00;100579.50;1759978;80;21182;-61
2020/12/09 04:45:27;;;;;;;28.87;12.60;;;;;;;-4.97;64.08;100573.89;1758996;80;21533;-61
2020/12/09 04:48:08;;;;;;;22.37;10.35;;;;;;;-4.94;64.07;100576.23;1761111;80;21177;-61
2020/12/09 04:50:53;;;;;;;22.02;10.03;;;;;;;-4.96;64.13;100568.92;1771760;80;21635;-61
2020/12/09 04:53:27;;;;;;;25.60;11.30;;;;;;;-4.94;64.37;100573.09;1744558;81;21650;-60
2020/12/09 04:55:57;;;;;;;27.75;12.63;;;;;;;-4.91;64.37;100582.08;1766898;80;21272;-61
2020/12/09 04:58:43;;;;;;;27.75;12.45;;;;;;;-4.91;64.47;100587.38;1763982;80;21144;-61
2020/12/09 05:01:15;;;;;;;25.53;11.17;;;;;;;-4.92;64.29;100588.36;1759402;81;21169;-61
2020/12/09 05:03:47;;;;;;;37.08;11.95;;;;;;;-4.92;64.29;100588.36;1759469;81;21300;-60
2020/12/09 05:06:16;;;;;;;23.62;10.05;;;;;;;-4.93;64.60;100581.41;1766342;80;21144;-61
2020/12/09 05:08:55;;;;;;;25.62;12.35;;;;;;;-4.95;64.69;100586.02;1759626;80;21620;-60
2020/12/09 05:11:27;;;;;;;24.18;11.05;;;;;;;-4.90;64.97;100585.57;1760212;80;21118;-61
2020/12/09 05:13:56;;;;;;;21.48;10.72;;;;;;;-4.87;64.84;100583.45;1759324;81;21236;-60
2020/12/09 05:16:23;;;;;;;24.98;10.38;;;;;;;-4.85;64.67;100581.45;1761459;80;21648;-60
2020/12/09 05:18:57;;;;;;;19.77;9.68;;;;;;;-4.86;64.83;100584.28;1759299;81;21650;-60
2020/12/09 05:21:25;;;;;;;24.05;12.03;;;;;;;-4.89;65.12;100589.41;1760584;80;21153;-61
2020/12/09 05:23:59;;;;;;;20.65;9.38;;;;;;;-4.88;65.32;100595.53;1759223;81;21304;-60
2020/12/09 05:26:31;;;;;;;25.05;10.78;;;;;;;-4.86;65.31;100582.95;1759320;81;21157;-60
2020/12/09 05:29:15;;;;;;;21.77;11.38;;;;;;;-4.89;65.56;100588.09;1759946;80;21192;-60
2020/12/09 05:31:48;;;;;;;20.37;9.28;;;;;;;-4.85;65.63;100588.62;1780609;80;21153;-60
2020/12/09 05:34:27;;;;;;;22.95;11.43;;;;;;;-4.84;65.77;100600.40;1771564;80;21584;-60
2020/12/09 05:36:59;;;;;;;20.05;9.93;;;;;;;-4.89;65.95;100589.91;1756417;82;21153;-60
2020/12/09 05:39:27;;;;;;;19.45;10.50;;;;;;;-4.84;65.85;100592.43;1756225;82;21176;-61
2020/12/09 05:41:55;;;;;;;17.85;9.98;;;;;;;-4.83;66.08;100591.45;1756328;82;21185;-60
2020/12/09 05:44:24;;;;;;;19.55;10.13;;;;;;;-4.82;66.19;100590.97;1756370;81;21150;-60
2020/12/09 05:46:58;;;;;;;18.37;10.08;;;;;;;-4.85;66.34;100584.11;1756985;80;21622;-60
2020/12/09 05:49:29;;;;;;;19.70;10.13;;;;;;;-4.87;66.63;100594.06;1704041;83;21578;-60
2020/12/09 05:52:13;;;;;;;22.58;10.23;;;;;;;-4.86;66.77;100587.78;1695031;84;21684;-60
2020/12/09 05:54:46;;;;;;;19.62;10.60;;;;;;;-4.84;66.78;100585.79;1726512;82;21596;-60
2020/12/09 05:57:16;;;;;;;21.33;11.18;;;;;;;-4.84;66.86;100584.46;1721261;82;21207;-60
2020/12/09 05:59:47;;;;;;;18.07;10.08;;;;;;;-4.83;66.90;100580.83;1736006;82;21122;-60
2020/12/09 06:02:20;;;;;;;34.90;13.58;;;;;;;-4.78;66.93;100581.19;1694928;83;21686;-61
2020/12/09 06:04:59;;;;;;;21.17;11.50;;;;;;;-4.76;67.17;100580.56;1805623;77;23408;-58
2020/12/09 06:07:30;;;;;;;24.98;11.83;;;;;;;-4.76;67.24;100579.72;1768702;78;21132;-60
2020/12/09 06:10:16;;;;;;;16.82;8.58;;;;;;;-4.80;67.36;100572.55;1780406;80;21137;-60
2020/12/09 06:12:57;;;;;;;27.15;10.85;;;;;;;-4.77;67.58;100584.19;1726839;83;21253;-60
2020/12/09 06:15:28;;;;;;;24.70;10.48;;;;;;;-4.82;68.00;100588.30;1721033;83;21177;-60
2020/12/09 06:18:13;;;;;;;24.50;11.28;;;;;;;-4.89;68.36;100588.09;1702455;84;21218;-59
2020/12/09 06:20:43;;;;;;;21.42;11.05;;;;;;;-4.87;68.59;100592.73;1702934;84;21177;-60
2020/12/09 06:23:15;;;;;;;23.98;12.40;;;;;;;-4.87;68.73;100591.41;1702805;84;21207;-59
2020/12/09 06:25:44;;;;;;;20.17;10.72;;;;;;;-4.84;68.89;100587.61;1699755;84;21315;-60
2020/12/09 06:28:16;;;;;;;29.98;14.07;;;;;;;-4.87;69.25;100595.88;1702720;84;21224;-60
2020/12/09 06:30:44;;;;;;;27.48;13.53;;;;;;;-4.87;69.50;100592.73;1728638;83;21169;-60
2020/12/09 06:33:12;;;;;;;31.07;13.75;;;;;;;-4.85;69.58;100591.27;1728650;83;21234;-60
2020/12/09 06:35:41;;;;;;;29.20;12.23;;;;;;;-4.83;69.58;100595.92;1749384;81;21134;-60
2020/12/09 06:38:13;;;;;;;22.87;11.97;;;;;;;-4.87;69.88;100598.54;1727940;83;21213;-60
2020/12/09 06:40:58;;;;;;;29.70;13.78;;;;;;;-4.79;69.91;100595.48;1686567;83;21149;-60
2020/12/09 06:43:26;;;;;;;27.70;13.58;;;;;;;-4.83;70.11;100583.97;1709435;83;21181;-60
2020/12/09 06:45:54;;;;;;;26.27;12.90;;;;;;;-4.80;70.40;100598.27;1677442;84;21606;-60
2020/12/09 06:48:24;;;;;;;24.10;12.05;;;;;;;-4.78;70.40;100602.44;1704174;83;21719;-59
2020/12/09 06:50:52;;;;;;;19.75;10.60;;;;;;;-4.81;70.65;100592.13;1728769;81;21589;-60
2020/12/09 06:53:23;;;;;;;28.42;13.40;;;;;;;-4.78;70.80;100601.11;1730924;83;21584;-60
2020/12/09 06:55:51;;;;;;;24.87;12.18;;;;;;;-4.77;70.93;100598.80;1700142;81;21141;-60
2020/12/09 06:58:29;;;;;;;26.77;13.55;;;;;;;-4.73;70.88;100600.66;1729526;83;21578;-61
2020/12/09 07:01:09;;;;;;;46.95;20.72;;;;;;;-4.70;70.94;100598.53;1717398;83;21483;-60
2020/12/09 07:03:37;;;;;;;57.70;29.80;;;;;;;-4.65;71.05;100604.72;1726688;81;21195;-60
2020/12/09 07:06:22;;;;;;;29.98;14.47;;;;;;;-4.68;71.13;100613.00;1714488;82;21181;-60
2020/12/09 07:08:50;;;;;;;26.40;13.78;;;;;;;-4.69;71.31;100610.00;1714065;84;21681;-60
2020/12/09 07:11:18;;;;;;;25.43;13.93;;;;;;;-4.71;71.51;100619.44;1713944;82;21324;-60
2020/12/09 07:13:46;;;;;;;26.50;14.07;;;;;;;-4.64;71.34;100615.18;1695993;82;21237;-60
2020/12/09 07:16:14;;;;;;;27.35;14.38;;;;;;;-4.61;71.54;100619.38;1715884;82;21590;-60
2020/12/09 07:18:41;;;;;;;26.23;13.55;;;;;;;-4.61;71.61;100614.91;1699230;84;21187;-60
2020/12/09 07:21:09;;;;;;;25.52;12.05;;;;;;;-4.59;71.68;100616.06;1719646;82;21158;-60
2020/12/09 07:23:38;;;;;;;31.10;14.23;;;;;;;-4.58;71.66;100615.08;1727589;82;21598;-60
2020/12/09 07:26:06;;;;;;;30.00;13.95;;;;;;;-4.60;71.80;100613.89;1731922;82;21312;-61
2020/12/09 07:28:34;;;;;;;27.87;13.40;;;;;;;-4.60;71.99;100614.38;1728453;82;21209;-60
2020/12/09 07:31:06;;;;;;;28.55;14.65;;;;;;;-4.59;71.90;100612.91;1704907;82;21297;-60
2020/12/09 07:33:34;;;;;;;29.63;14.20;;;;;;;-4.57;72.06;100610.12;1676893;85;21167;-60
2020/12/09 07:36:10;;;;;;;27.75;15.38;;;;;;;-4.58;72.40;100623.05;1698930;84;21609;-60
2020/12/09 07:38:40;;;;;;;32.98;17.50;;;;;;;-4.60;72.57;100613.89;1723845;83;21214;-61
2020/12/09 07:41:08;;;;;;;33.75;14.75;;;;;;;-4.58;72.69;100622.56;1694439;84;21608;-60
2020/12/09 07:43:37;;;;;;;31.73;14.23;;;;;;;-4.51;72.79;100628.09;1694851;84;21757;-60
2020/12/09 07:46:05;;;;;;;31.33;15.03;;;;;;;-4.46;72.81;100626.31;1713529;84;21171;-60
2020/12/09 07:48:33;;;;;;;31.10;14.87;;;;;;;-4.42;72.84;100622.33;1713466;84;21187;-60
2020/12/09 07:51:01;;;;;;;29.30;14.03;;;;;;;-4.36;72.72;100623.91;1719621;82;21140;-59
2020/12/09 07:53:29;;;;;;;29.07;14.33;;;;;;;-4.34;72.75;100614.43;1713031;83;21174;-59
2020/12/09 07:55:59;;;;;;;28.47;14.63;;;;;;;-4.31;72.76;100624.75;1713472;84;21193;-60
2020/12/09 07:58:27;;;;;;;33.67;16.27;;;;;;;-4.24;72.76;100624.47;1734171;82;21745;-60
2020/12/09 08:00:55;;;;;;;30.10;14.87;;;;;;;-4.25;72.66;100618.83;1702351;82;21288;-60
2020/12/09 08:03:25;;;;;;;27.80;13.60;;;;;;;-4.20;72.79;100620.02;1677873;83;21264;-60
2020/12/09 08:05:55;;;;;;;29.30;15.08;;;;;;;-4.18;72.79;100620.69;1751571;82;21203;-60
2020/12/09 08:08:25;;;;;;;28.15;13.53;;;;;;;-4.24;73.18;100611.17;1753582;82;21237;-61
2020/12/09 08:10:52;;;;;;;27.60;13.38;;;;;;;-4.21;73.06;100612.19;1753355;82;21154;-60
2020/12/09 08:13:24;;;;;;;24.85;12.98;;;;;;;-4.22;73.26;100622.51;1753524;81;21170;-60
2020/12/09 08:16:02;;;;;;;26.68;13.25;;;;;;;-4.18;73.42;100623.34;1753506;81;21158;-61
2020/12/09 08:18:29;;;;;;;;;;;;;;;-4.16;72.86;100623.20;1756172;82;21168;-60
2020/12/09 08:20:57;;;;;;;23.30;11.90;;;;;;;-4.19;73.08;100622.19;1753811;80;20489;-60
2020/12/09 08:23:46;;;;;;;24.85;12.15;;;;;;;-4.22;73.58;100618.52;1753367;82;21622;-60
2020/12/09 08:26:30;;;;;;;29.25;13.32;;;;;;;-4.17;73.47;100617.54;1753403;82;21178;-61
2020/12/09 08:28:58;;;;;;;22.40;12.25;;;;;;;-4.16;73.73;100621.39;1759454;81;21197;-60
2020/12/09 08:31:26;;;;;;;26.85;13.08;;;;;;;-4.06;73.57;100615.95;1751642;80;21280;-60
2020/12/09 08:33:53;;;;;;;25.52;13.88;;;;;;;-4.13;73.63;100614.91;1761359;80;21215;-60
2020/12/09 08:36:22;;;;;;;26.80;14.33;;;;;;;-4.11;73.98;100616.94;1715264;83;21182;-60
2020/12/09 08:39:00;;;;;;;27.25;13.83;;;;;;;-4.09;73.98;100620.27;1767897;80;21187;-60
2020/12/09 08:41:32;;;;;;;26.02;14.13;;;;;;;-4.08;73.93;100612.63;1750942;82;21187;-60
2020/12/09 08:44:04;;;;;;;32.75;15.53;;;;;;;-3.95;73.96;100620.18;1750636;82;21180;-60
2020/12/09 08:46:31;;;;;;;33.85;19.30;;;;;;;-3.86;73.52;100628.56;1750908;82;21555;-60
2020/12/09 08:48:59;;;;;;;24.77;13.25;;;;;;;-3.80;73.49;100619.45;1750935;80;21549;-60
2020/12/09 08:51:29;;;;;;;28.25;12.95;;;;;;;-3.77;73.03;100619.13;1751329;80;21153;-61
2020/12/09 08:53:58;;;;;;;25.50;12.65;;;;;;;-3.82;72.84;100616.59;1753591;81;21635;-60
2020/12/09 08:56:32;;;;;;;23.67;13.28;;;;;;;-3.88;73.08;100615.90;1753499;82;21478;-60
2020/12/09 08:59:00;;;;;;;26.37;12.55;;;;;;;-3.87;73.32;100611.77;1723843;82;21193;-60
2020/12/09 09:01:28;;;;;;;25.57;12.58;;;;;;;-3.83;73.39;100614.94;1750924;82;21185;-60
2020/12/09 09:06:32;;;;;;;30.90;18.42;;;;;;;-3.76;73.90;100602.19;1802513;79;27868;-61
2020/12/09 09:09:00;;;;;;;32.85;19.37;;;;;;;-3.59;73.02;100601.75;1760786;80;21153;-61
2020/12/09 09:14:04;;;;;;;43.13;27.60;;;;;;;-3.37;72.45;100595.86;1763864;79;38619;-59
2020/12/09 09:16:33;;;;;;;33.95;18.48;;;;;;;-3.26;71.73;100596.86;1751920;82;21166;-58
2020/12/09 09:19:01;;;;;;;30.62;17.12;;;;;;;-3.15;71.45;100605.05;1692695;83;21580;-59
2020/12/09 09:21:33;;;;;;;37.60;19.95;;;;;;;-3.23;71.60;100603.22;1694587;83;21577;-58
2020/12/09 09:24:01;;;;;;;35.23;19.95;;;;;;;-3.29;71.49;100605.67;1723009;83;21185;-58
2020/12/09 09:26:34;;;;;;;41.58;21.55;;;;;;;-3.37;71.08;100593.19;1722817;83;21164;-60
2020/12/09 09:29:03;;;;;;;38.55;18.12;;;;;;;-3.43;71.33;100604.95;1722077;83;21727;-61
2020/12/09 09:31:31;;;;;;;45.75;23.20;;;;;;;-3.45;71.69;100603.80;1722727;82;21295;-61
2020/12/09 09:33:58;;;;;;;71.12;33.38;;;;;;;-3.45;72.14;100598.97;1722625;83;21691;-60
2020/12/09 09:36:32;;;;;;;59.35;28.27;;;;;;;-3.45;71.68;100602.97;1722573;83;21141;-61
2020/12/09 09:39:00;;;;;;;41.65;18.80;;;;;;;-3.43;71.91;100603.63;1722301;83;21628;-61
2020/12/09 09:41:28;;;;;;;36.93;20.15;;;;;;;-3.47;71.81;100600.98;1706510;83;21141;-61
2020/12/09 09:43:56;;;;;;;36.90;18.35;;;;;;;-3.46;72.05;100603.95;1693894;84;21671;-60
2020/12/09 09:46:24;;;;;;;59.18;24.57;;;;;;;-3.48;71.80;100597.97;1694530;83;21172;-61
2020/12/09 09:48:52;;;;;;;28.35;15.55;;;;;;;-3.53;72.08;100599.77;1693690;85;21185;-61
2020/12/09 09:51:19;;;;;;;31.65;16.00;;;;;;;-3.60;72.21;100599.58;1693855;85;21501;-60
2020/12/09 09:53:48;;;;;;;66.92;33.55;;;;;;;-3.53;72.26;100595.78;1693914;85;21224;-61
2020/12/09 09:56:16;;;;;;;43.58;21.50;;;;;;;-3.47;72.31;100599.13;1694927;83;21180;-61
2020/12/09 09:58:44;;;;;;;38.00;18.70;;;;;;;-3.43;71.79;100595.64;1689157;84;21188;-61
2020/12/09 10:01:16;;;;;;;55.78;27.32;;;;;;;-3.45;72.22;100589.66;1717435;83;21181;-61
2020/12/09 10:03:44;;;;;;;34.92;17.73;;;;;;;-3.45;72.60;100583.00;1722648;82;21920;-60
2020/12/09 10:06:13;;;;;;;36.10;17.00;;;;;;;-3.40;72.52;100574.85;1707199;83;21161;-61
2020/12/09 10:08:40;;;;;;;39.70;18.20;;;;;;;-3.38;72.47;100578.70;1693764;85;21198;-61
2020/12/09 10:11:08;;;;;;;32.78;16.90;;;;;;;-3.34;72.54;100578.22;1666535;85;21137;-61
2020/12/09 10:13:36;;;;;;;43.87;22.10;;;;;;;-3.36;72.43;100568.22;1694043;85;21660;-60
2020/12/09 10:16:04;;;;;;;27.42;13.95;;;;;;;-3.36;72.34;100582.02;1704045;83;21679;-61
2020/12/09 10:18:32;;;;;;;38.38;17.67;;;;;;;-3.42;72.63;100589.33;1722768;82;21618;-61
2020/12/09 10:21:01;;;;;;;44.90;22.30;;;;;;;-3.44;72.71;100578.86;1714849;83;21135;-61
2020/12/09 10:23:29;;;;;;;70.72;35.98;;;;;;;-3.49;73.24;100577.17;1694256;85;21206;-61
2020/12/09 10:25:56;;;;;;;36.55;17.75;;;;;;;-3.43;73.37;100577.00;1694860;83;21168;-61
2020/12/09 10:28:24;;;;;;;28.50;15.58;;;;;;;-3.39;73.34;100571.20;1722885;82;21153;-60
2020/12/09 10:30:52;;;;;;;22.58;12.45;;;;;;;-3.36;73.18;100570.04;1710167;83;21157;-61
2020/12/09 10:33:20;;;;;;;53.92;26.93;;;;;;;-3.34;73.07;100573.39;1694087;85;21196;-61
2020/12/09 10:35:48;;;;;;;42.27;21.48;;;;;;;-3.31;73.15;100577.05;1683432;83;21606;-61
2020/12/09 10:38:16;;;;;;;30.68;16.00;;;;;;;-3.28;72.91;100577.56;1722867;82;21137;-61
2020/12/09 10:40:44;;;;;;;39.65;23.45;;;;;;;-3.32;72.75;100566.90;1722894;83;21181;-60
2020/12/09 10:43:13;;;;;;;23.12;11.45;;;;;;;-3.34;72.65;100574.23;1713266;82;21588;-60
2020/12/09 10:45:43;;;;;;;27.65;14.78;;;;;;;-3.36;72.24;100568.22;1690171;85;21157;-61
2020/12/09 10:50:22;;;;;;;28.92;16.65;;;;;;;-3.36;72.12;100562.89;1779622;79;23160;-60
2020/12/09 10:52:50;;;;;;;24.57;14.15;;;;;;;-3.38;72.50;100573.38;1735364;82;21380;-60
2020/12/09 10:55:17;;;;;;;28.47;17.02;;;;;;;-3.35;72.07;100570.38;1722633;83;21668;-60
2020/12/09 10:57:45;;;;;;;30.00;15.43;;;;;;;-3.40;71.47;100569.53;1722623;82;21192;-61
2020/12/09 11:00:14;;;;;;;35.48;17.00;;;;;;;-3.40;71.30;100569.53;1722698;83;21212;-60
2020/12/09 11:02:42;;;;;;;50.95;19.82;;;;;;;-3.44;71.39;100573.54;1722354;82;21190;-61
2020/12/09 11:05:10;;;;;;;39.45;16.97;;;;;;;-3.48;71.31;100570.02;1715645;83;21629;-61
2020/12/09 11:07:38;;;;;;;30.72;16.07;;;;;;;-3.45;71.60;100575.02;1693870;85;21357;-60
2020/12/09 11:10:06;;;;;;;33.23;17.27;;;;;;;-3.42;71.51;100570.20;1666663;85;21360;-61
2020/12/09 11:12:34;;;;;;;29.85;14.50;;;;;;;-3.39;71.49;100569.03;1673761;83;21726;-62
2020/12/09 11:15:03;;;;;;;28.65;14.65;;;;;;;-3.38;71.56;100564.89;1700314;83;21169;-61
2020/12/09 11:17:33;;;;;;;31.00;15.58;;;;;;;-3.40;71.55;100562.07;1695794;83;21164;-62
2020/12/09 11:20:01;;;;;;;48.92;22.48;;;;;;;-3.44;71.76;100562.89;1673536;83;21192;-61
2020/12/09 11:22:29;;;;;;;25.30;12.37;;;;;;;-3.39;71.83;100569.88;1724021;82;21199;-59
2020/12/09 11:24:57;;;;;;;32.88;16.62;;;;;;;-3.38;71.77;100571.55;1713586;82;21164;-59
2020/12/09 11:27:25;;;;;;;23.35;12.00;;;;;;;-3.31;71.56;100570.40;1694301;83;21670;-59
2020/12/09 11:29:53;;;;;;;29.37;14.55;;;;;;;-3.32;71.59;100563.40;1647227;84;21682;-60
2020/12/09 11:32:21;;;;;;;26.73;13.38;;;;;;;-3.32;71.63;100560.73;1674221;83;21188;-60